sensor_id;sensor_type;location;lat;lon;timestamp;temperature;humidity
23403;DHT22;11874;48.228;11.684;2023-04-24T07:11:07;13.70;99.90
23403;DHT22;11874;48.228;11.684;2023-04-24T07:13:34;13.10;99.90
23403;DHT22;11874;48.228;11.684;2023-04-24T07:16:03;13.20;99.90
23403;DHT22;11874;48.228;11.684;2023-04-24T07:18:31;13.20;99.90
23403;DHT22;11874;48.228;11.684;2023-04-24T07:20:58;13.20;99.90
23403;DHT22;11874;48.228;11.684;2023-04-24T07:23:27;13.30;99.90
23403;DHT22;11874;48.228;11.684;2023-04-24T07:25:55;13.20;99.90
23403;DHT22;11874;48.228;11.684;2023-04-24T07:28:24;13.20;99.90
23403;DHT22;11874;48.228;11.684;2023-04-24T07:30:52;13.20;99.90
23403;DHT22;11874;48.228;11.684;2023-04-24T07:33:21;13.20;99.90
23403;DHT22;11874;48.228;11.684;2023-04-24T07:35:49;13.20;99.90
23403;DHT22;11874;48.228;11.684;2023-04-24T07:38:17;13.30;99.90
23403;DHT22;11874;48.228;11.684;2023-04-24T07:40:47;13.30;99.90
23403;DHT22;11874;48.228;11.684;2023-04-24T07:43:14;13.40;99.90
23403;DHT22;11874;48.228;11.684;2023-04-24T07:45:44;13.50;99.90
23403;DHT22;11874;48.228;11.684;2023-04-24T07:48:12;13.50;99.90
23403;DHT22;11874;48.228;11.684;2023-04-24T07:50:41;13.50;99.90
23403;DHT22;11874;48.228;11.684;2023-04-24T07:53:09;13.50;99.90
23403;DHT22;11874;48.228;11.684;2023-04-24T07:55:37;13.40;99.90
23403;DHT22;11874;48.228;11.684;2023-04-24T07:58:05;13.40;99.90
23403;DHT22;11874;48.228;11.684;2023-04-24T08:00:33;13.40;99.90
23403;DHT22;11874;48.228;11.684;2023-04-24T08:03:02;13.30;99.90
23403;DHT22;11874;48.228;11.684;2023-04-24T08:05:31;13.30;99.90
23403;DHT22;11874;48.228;11.684;2023-04-24T08:07:59;13.30;99.90
23403;DHT22;11874;48.228;11.684;2023-04-24T08:10:26;13.30;99.90
23403;DHT22;11874;48.228;11.684;2023-04-24T08:12:54;13.40;99.90
23403;DHT22;11874;48.228;11.684;2023-04-24T08:15:23;13.50;99.90
23403;DHT22;11874;48.228;11.684;2023-04-24T08:17:51;13.60;99.90
23403;DHT22;11874;48.228;11.684;2023-04-24T08:20:21;13.70;99.90
23403;DHT22;11874;48.228;11.684;2023-04-24T08:22:48;13.80;99.90
23403;DHT22;11874;48.228;11.684;2023-04-24T08:25:16;13.80;99.90
23403;DHT22;11874;48.228;11.684;2023-04-24T08:27:45;13.80;99.90
23403;DHT22;11874;48.228;11.684;2023-04-24T08:30:13;13.60;99.90
23403;DHT22;11874;48.228;11.684;2023-04-24T08:32:41;13.50;99.90
23403;DHT22;11874;48.228;11.684;2023-04-24T08:35:09;13.50;99.90
23403;DHT22;11874;48.228;11.684;2023-04-24T08:37:38;13.40;99.90
23403;DHT22;11874;48.228;11.684;2023-04-24T08:40:13;13.40;99.90
23403;DHT22;11874;48.228;11.684;2023-04-24T08:42:42;13.30;99.90
23403;DHT22;11874;48.228;11.684;2023-04-24T08:45:11;13.20;99.90
23403;DHT22;11874;48.228;11.684;2023-04-24T08:47:40;13.20;99.90
23403;DHT22;11874;48.228;11.684;2023-04-24T08:50:09;13.10;99.90
23403;DHT22;11874;48.228;11.684;2023-04-24T08:52:38;13.00;99.90
23403;DHT22;11874;48.228;11.684;2023-04-24T08:55:07;13.00;99.90
23403;DHT22;11874;48.228;11.684;2023-04-24T08:57:35;13.00;99.90
23403;DHT22;11874;48.228;11.684;2023-04-24T09:00:07;13.00;99.90
23403;DHT22;11874;48.228;11.684;2023-04-24T09:02:41;13.00;99.90
23403;DHT22;11874;48.228;11.684;2023-04-24T09:05:10;13.10;99.90
23403;DHT22;11874;48.228;11.684;2023-04-24T09:07:39;13.00;99.90
23403;DHT22;11874;48.228;11.684;2023-04-24T09:10:09;13.00;99.90
23403;DHT22;11874;48.228;11.684;2023-04-24T09:12:38;13.10;99.90
23403;DHT22;11874;48.228;11.684;2023-04-24T09:15:07;13.10;99.90
23403;DHT22;11874;48.228;11.684;2023-04-24T09:17:36;13.10;99.90
23403;DHT22;11874;48.228;11.684;2023-04-24T09:20:05;13.10;99.90
23403;DHT22;11874;48.228;11.684;2023-04-24T09:22:33;13.10;99.90
23403;DHT22;11874;48.228;11.684;2023-04-24T09:25:07;13.20;99.70
23403;DHT22;11874;48.228;11.684;2023-04-24T09:27:35;13.20;99.80
23403;DHT22;11874;48.228;11.684;2023-04-24T09:30:04;13.40;99.50
23403;DHT22;11874;48.228;11.684;2023-04-24T09:32:32;13.40;99.00
23403;DHT22;11874;48.228;11.684;2023-04-24T09:35:08;13.50;98.70
23403;DHT22;11874;48.228;11.684;2023-04-24T09:37:37;13.50;98.50
23403;DHT22;11874;48.228;11.684;2023-04-24T09:40:24;13.60;98.30
23403;DHT22;11874;48.228;11.684;2023-04-24T09:42:54;13.50;97.70
23403;DHT22;11874;48.228;11.684;2023-04-24T09:45:22;13.50;97.30
23403;DHT22;11874;48.228;11.684;2023-04-24T09:47:55;13.50;97.20
23403;DHT22;11874;48.228;11.684;2023-04-24T09:50:23;13.50;96.80
23403;DHT22;11874;48.228;11.684;2023-04-24T09:52:57;13.50;96.80
23403;DHT22;11874;48.228;11.684;2023-04-24T09:55:26;13.50;96.80
23403;DHT22;11874;48.228;11.684;2023-04-24T09:57:55;13.60;96.80
23403;DHT22;11874;48.228;11.684;2023-04-24T10:00:25;13.70;96.80
23403;DHT22;11874;48.228;11.684;2023-04-24T10:02:57;13.80;96.80
23403;DHT22;11874;48.228;11.684;2023-04-24T10:05:30;13.70;96.60
23403;DHT22;11874;48.228;11.684;2023-04-24T10:08:03;13.70;96.30
23403;DHT22;11874;48.228;11.684;2023-04-24T10:10:35;13.70;96.30
23403;DHT22;11874;48.228;11.684;2023-04-24T10:13:05;13.80;96.60
23403;DHT22;11874;48.228;11.684;2023-04-24T10:15:34;13.80;96.80
23403;DHT22;11874;48.228;11.684;2023-04-24T10:18:04;13.90;97.00
23403;DHT22;11874;48.228;11.684;2023-04-24T10:20:34;13.90;97.00
23403;DHT22;11874;48.228;11.684;2023-04-24T10:23:03;14.00;96.90
23403;DHT22;11874;48.228;11.684;2023-04-24T10:25:33;14.10;96.70
23403;DHT22;11874;48.228;11.684;2023-04-24T10:28:06;14.10;96.30
23403;DHT22;11874;48.228;11.684;2023-04-24T10:30:36;14.10;96.00
23403;DHT22;11874;48.228;11.684;2023-04-24T10:33:06;14.10;95.90
23403;DHT22;11874;48.228;11.684;2023-04-24T10:35:38;14.10;96.50
23403;DHT22;11874;48.228;11.684;2023-04-24T10:38:09;14.10;96.10
23403;DHT22;11874;48.228;11.684;2023-04-24T10:40:39;14.20;95.70
23403;DHT22;11874;48.228;11.684;2023-04-24T10:43:08;14.20;95.70
23403;DHT22;11874;48.228;11.684;2023-04-24T10:45:38;14.20;95.80
23403;DHT22;11874;48.228;11.684;2023-04-24T10:48:07;14.20;95.90
23403;DHT22;11874;48.228;11.684;2023-04-24T10:50:46;14.20;95.80
23403;DHT22;11874;48.228;11.684;2023-04-24T10:53:16;14.20;96.00
23403;DHT22;11874;48.228;11.684;2023-04-24T10:55:50;14.20;95.90
23403;DHT22;11874;48.228;11.684;2023-04-24T10:58:22;14.20;95.90
23403;DHT22;11874;48.228;11.684;2023-04-24T11:00:57;14.00;96.10
23403;DHT22;11874;48.228;11.684;2023-04-24T11:03:27;14.00;96.20
23403;DHT22;11874;48.228;11.684;2023-04-24T11:05:57;13.80;96.70
23403;DHT22;11874;48.228;11.684;2023-04-24T11:08:27;13.70;97.70
23403;DHT22;11874;48.228;11.684;2023-04-24T11:11:02;13.40;98.60
23403;DHT22;11874;48.228;11.684;2023-04-24T11:14:02;13.20;99.20
23403;DHT22;11874;48.228;11.684;2023-04-24T11:16:34;13.10;99.90
23403;DHT22;11874;48.228;11.684;2023-04-24T11:19:04;13.10;99.90
23403;DHT22;11874;48.228;11.684;2023-04-24T11:21:40;13.10;99.90
23403;DHT22;11874;48.228;11.684;2023-04-24T11:24:28;13.20;99.90
23403;DHT22;11874;48.228;11.684;2023-04-24T11:27:12;13.20;99.90
23403;DHT22;11874;48.228;11.684;2023-04-24T11:29:43;13.30;99.90
23403;DHT22;11874;48.228;11.684;2023-04-24T11:32:25;13.40;99.90
23403;DHT22;11874;48.228;11.684;2023-04-24T11:34:54;13.50;99.90
23403;DHT22;11874;48.228;11.684;2023-04-24T11:37:29;13.60;99.90
23403;DHT22;11874;48.228;11.684;2023-04-24T11:40:00;13.80;99.90
23403;DHT22;11874;48.228;11.684;2023-04-24T11:42:35;13.70;99.90
23403;DHT22;11874;48.228;11.684;2023-04-24T11:45:08;13.60;99.90
23403;DHT22;11874;48.228;11.684;2023-04-24T11:47:36;13.60;99.90
23403;DHT22;11874;48.228;11.684;2023-04-24T11:50:06;13.60;99.90
23403;DHT22;11874;48.228;11.684;2023-04-24T11:52:37;13.70;99.90
23403;DHT22;11874;48.228;11.684;2023-04-24T11:55:07;13.80;99.90
23403;DHT22;11874;48.228;11.684;2023-04-24T11:57:37;13.80;99.30
23403;DHT22;11874;48.228;11.684;2023-04-24T12:00:06;13.90;98.20
23403;DHT22;11874;48.228;11.684;2023-04-24T12:02:35;13.90;98.00
23403;DHT22;11874;48.228;11.684;2023-04-24T12:05:06;13.90;97.90
23403;DHT22;11874;48.228;11.684;2023-04-24T12:07:40;14.00;97.90
23403;DHT22;11874;48.228;11.684;2023-04-24T12:10:09;14.10;97.80
23403;DHT22;11874;48.228;11.684;2023-04-24T12:12:39;14.20;97.00
23403;DHT22;11874;48.228;11.684;2023-04-24T12:15:08;14.30;96.70
23403;DHT22;11874;48.228;11.684;2023-04-24T12:17:36;14.30;96.60
23403;DHT22;11874;48.228;11.684;2023-04-24T12:20:08;14.30;96.90
23403;DHT22;11874;48.228;11.684;2023-04-24T12:22:44;14.30;96.90
23403;DHT22;11874;48.228;11.684;2023-04-24T12:25:13;14.30;96.80
23403;DHT22;11874;48.228;11.684;2023-04-24T12:27:43;14.20;96.90
23403;DHT22;11874;48.228;11.684;2023-04-24T12:30:16;14.20;96.80
23403;DHT22;11874;48.228;11.684;2023-04-24T12:32:46;14.20;97.00
23403;DHT22;11874;48.228;11.684;2023-04-24T12:35:19;14.30;97.00
23403;DHT22;11874;48.228;11.684;2023-04-24T12:37:47;14.50;96.70
23403;DHT22;11874;48.228;11.684;2023-04-24T12:40:17;14.50;96.30
23403;DHT22;11874;48.228;11.684;2023-04-24T12:42:47;14.80;95.50
23403;DHT22;11874;48.228;11.684;2023-04-24T12:45:16;14.80;94.70
23403;DHT22;11874;48.228;11.684;2023-04-24T12:47:45;14.70;93.50
23403;DHT22;11874;48.228;11.684;2023-04-24T12:50:15;14.80;93.50
23403;DHT22;11874;48.228;11.684;2023-04-24T12:52:44;14.90;92.90
23403;DHT22;11874;48.228;11.684;2023-04-24T12:55:12;14.90;92.20
23403;DHT22;11874;48.228;11.684;2023-04-24T12:57:42;15.00;92.20
23403;DHT22;11874;48.228;11.684;2023-04-24T13:00:12;15.00;91.90
23403;DHT22;11874;48.228;11.684;2023-04-24T13:02:40;15.00;91.90
23403;DHT22;11874;48.228;11.684;2023-04-24T13:05:08;14.90;92.20
23403;DHT22;11874;48.228;11.684;2023-04-24T13:07:38;14.80;92.70
23403;DHT22;11874;48.228;11.684;2023-04-24T13:10:07;14.80;92.80
23403;DHT22;11874;48.228;11.684;2023-04-24T13:12:35;14.60;91.50
23403;DHT22;11874;48.228;11.684;2023-04-24T13:15:04;14.50;91.70
23403;DHT22;11874;48.228;11.684;2023-04-24T13:17:33;14.50;91.50
23403;DHT22;11874;48.228;11.684;2023-04-24T13:20:01;14.40;91.30
23403;DHT22;11874;48.228;11.684;2023-04-24T13:22:30;14.40;91.50
23403;DHT22;11874;48.228;11.684;2023-04-24T13:24:58;14.40;91.70
23403;DHT22;11874;48.228;11.684;2023-04-24T13:27:26;14.30;91.70
23403;DHT22;11874;48.228;11.684;2023-04-24T13:29:53;14.40;91.80
23403;DHT22;11874;48.228;11.684;2023-04-24T13:32:21;14.50;91.80
23403;DHT22;11874;48.228;11.684;2023-04-24T13:34:51;14.60;91.70
23403;DHT22;11874;48.228;11.684;2023-04-24T13:37:18;14.70;91.60
23403;DHT22;11874;48.228;11.684;2023-04-24T13:39:46;14.90;91.30
23403;DHT22;11874;48.228;11.684;2023-04-24T13:42:14;14.90;91.20
23403;DHT22;11874;48.228;11.684;2023-04-24T13:44:42;14.90;90.90
23403;DHT22;11874;48.228;11.684;2023-04-24T13:47:10;14.90;90.80
23403;DHT22;11874;48.228;11.684;2023-04-24T13:49:38;14.80;90.70
23403;DHT22;11874;48.228;11.684;2023-04-24T13:52:07;14.60;90.70
23403;DHT22;11874;48.228;11.684;2023-04-24T13:54:36;14.70;91.10
23403;DHT22;11874;48.228;11.684;2023-04-24T13:57:04;14.90;90.60
23403;DHT22;11874;48.228;11.684;2023-04-24T13:59:32;15.10;90.30
23403;DHT22;11874;48.228;11.684;2023-04-24T14:02:00;16.00;90.90
23403;DHT22;11874;48.228;11.684;2023-04-24T14:04:28;17.20;90.00
23403;DHT22;11874;48.228;11.684;2023-04-24T14:06:56;17.90;83.10
23403;DHT22;11874;48.228;11.684;2023-04-24T14:09:25;17.50;82.30
23403;DHT22;11874;48.228;11.684;2023-04-24T14:11:53;17.90;83.90
23403;DHT22;11874;48.228;11.684;2023-04-24T14:14:21;18.60;83.10
23403;DHT22;11874;48.228;11.684;2023-04-24T14:16:51;19.20;82.20
23403;DHT22;11874;48.228;11.684;2023-04-24T14:19:19;20.20;79.00
23403;DHT22;11874;48.228;11.684;2023-04-24T14:21:47;20.60;73.70
23403;DHT22;11874;48.228;11.684;2023-04-24T14:24:15;19.80;73.30
23403;DHT22;11874;48.228;11.684;2023-04-24T14:26:44;18.80;75.30
23403;DHT22;11874;48.228;11.684;2023-04-24T14:29:15;17.90;76.20
23403;DHT22;11874;48.228;11.684;2023-04-24T14:31:43;17.20;77.80
23403;DHT22;11874;48.228;11.684;2023-04-24T14:34:11;16.90;78.30
23403;DHT22;11874;48.228;11.684;2023-04-24T14:36:39;16.60;79.10
23403;DHT22;11874;48.228;11.684;2023-04-24T14:39:07;16.90;79.10
23403;DHT22;11874;48.228;11.684;2023-04-24T14:41:35;17.40;78.20
23403;DHT22;11874;48.228;11.684;2023-04-24T14:44:05;18.00;78.40
23403;DHT22;11874;48.228;11.684;2023-04-24T14:46:36;18.20;74.60
23403;DHT22;11874;48.228;11.684;2023-04-24T14:49:04;18.20;76.30
23403;DHT22;11874;48.228;11.684;2023-04-24T14:51:34;18.00;75.40
23403;DHT22;11874;48.228;11.684;2023-04-24T14:54:02;17.80;76.90
23403;DHT22;11874;48.228;11.684;2023-04-24T14:56:30;18.00;75.70
23403;DHT22;11874;48.228;11.684;2023-04-24T14:58:58;18.20;75.50
23403;DHT22;11874;48.228;11.684;2023-04-24T15:01:27;18.00;74.10
23403;DHT22;11874;48.228;11.684;2023-04-24T15:03:55;17.80;73.90
23403;DHT22;11874;48.228;11.684;2023-04-24T15:06:23;17.40;74.20
23403;DHT22;11874;48.228;11.684;2023-04-24T15:08:51;17.30;75.60
23403;DHT22;11874;48.228;11.684;2023-04-24T15:11:19;17.40;76.30
23403;DHT22;11874;48.228;11.684;2023-04-24T15:13:47;17.70;76.20
23403;DHT22;11874;48.228;11.684;2023-04-24T15:16:15;18.00;76.40
23403;DHT22;11874;48.228;11.684;2023-04-24T15:18:45;18.10;75.50
23403;DHT22;11874;48.228;11.684;2023-04-24T15:21:12;18.10;75.30
23403;DHT22;11874;48.228;11.684;2023-04-24T15:23:40;17.90;76.20
23403;DHT22;11874;48.228;11.684;2023-04-24T15:26:08;17.70;75.20
23403;DHT22;11874;48.228;11.684;2023-04-24T15:28:36;17.30;75.50
23403;DHT22;11874;48.228;11.684;2023-04-24T15:31:04;17.30;77.40
